< < Back
Terminal Aerodrome Forecast


Current Version              Previous Versions:   1  2  3  4  5  6  7  8  9  

Terminal Aerodrome Forecast

833
FTUS42 KCHS 211700
TAFSAV
TAF
KSAV 211720Z 2118/2218 02007KT 6SM -RA BR BKN008 OVC025
     FM220000 03005KT 4SM -RA BR OVC006
     FM220800 02006KT 3SM -RADZ BR OVC004=

Latest METAR

137
SAUS80 KWBC 211900 RRB
MTRSAV
METAR KSAV 211853Z 03008KT 6SM -RA BR BKN008 OVC022 09/07 A3014 RMK AO2
SLP206 P0000 T00890072


USA.gov is the U.S. government's official web portal to all federal, state and local government web resources and services.